createdAt,value
2023-02-11T00:01:23.652Z,4.20
2023-02-11T00:03:51.524Z,4.05
2023-02-11T00:06:20.097Z,4.22
2023-02-11T00:08:48.180Z,4.40
2023-02-11T00:11:19.520Z,4.30
2023-02-11T00:13:47.777Z,3.90
2023-02-11T00:16:17.896Z,4.40
2023-02-11T00:18:46.325Z,4.18
2023-02-11T00:21:17.302Z,4.60
2023-02-11T00:23:46.093Z,4.47
2023-02-11T00:26:14.533Z,5.00
2023-02-11T00:28:45.550Z,4.88
2023-02-11T00:31:14.395Z,4.95
2023-02-11T00:33:43.007Z,4.37
2023-02-11T00:36:15.506Z,5.30
2023-02-11T00:38:43.914Z,5.00
2023-02-11T00:41:12.996Z,5.30
2023-02-11T00:43:41.228Z,5.03
2023-02-11T00:46:11.002Z,5.43
2023-02-11T00:48:40.422Z,5.38
2023-02-11T00:51:11.805Z,5.05
2023-02-11T00:53:39.967Z,5.22
2023-02-11T00:56:08.492Z,5.60
2023-02-11T00:58:36.336Z,5.50
2023-02-11T01:01:04.581Z,5.97
2023-02-11T01:03:36.003Z,5.95
2023-02-11T01:06:04.007Z,5.60
2023-02-11T01:08:31.762Z,5.15
2023-02-11T01:11:01.425Z,6.67
2023-02-11T01:13:30.303Z,6.03
2023-02-11T01:15:58.939Z,6.63
2023-02-11T01:18:26.923Z,7.18
2023-02-11T01:20:56.268Z,6.85
2023-02-11T01:23:24.552Z,6.67
2023-02-11T01:25:52.868Z,6.32
2023-02-11T01:28:23.974Z,7.60
2023-02-11T01:30:53.884Z,8.40
2023-02-11T01:33:22.218Z,7.90
2023-02-11T01:35:50.854Z,7.43
2023-02-11T01:38:22.682Z,7.32
2023-02-11T01:40:53.116Z,8.32
2023-02-11T01:43:22.052Z,8.65
2023-02-11T01:46:03.690Z,8.25
2023-02-11T01:48:35.332Z,7.80
2023-02-11T01:51:07.869Z,7.90
2023-02-11T01:53:57.133Z,9.18
2023-02-11T01:56:56.544Z,7.25
2023-02-11T01:59:30.010Z,7.68
2023-02-11T02:02:01.643Z,8.33
2023-02-11T02:04:36.482Z,8.40
2023-02-11T02:07:09.817Z,7.80
2023-02-11T02:09:43.112Z,8.52
2023-02-11T02:12:11.330Z,8.30
2023-02-11T02:14:41.314Z,9.33
2023-02-11T02:17:13.820Z,8.85
2023-02-11T02:20:16.251Z,9.00
2023-02-11T02:23:05.323Z,8.68
2023-02-11T02:26:00.708Z,8.82
2023-02-11T02:28:47.823Z,8.67
2023-02-11T02:31:40.358Z,9.20
2023-02-11T02:34:17.105Z,8.85
2023-02-11T02:36:50.243Z,9.57
2023-02-11T02:39:23.293Z,8.65
2023-02-11T02:41:53.903Z,8.93
2023-02-11T02:44:22.490Z,9.05
2023-02-11T02:46:50.524Z,10.15
2023-02-11T02:49:19.698Z,10.27
2023-02-11T02:52:04.920Z,11.13
2023-02-11T02:55:09.923Z,9.23
2023-02-11T02:57:52.449Z,9.30
2023-02-11T03:00:31.089Z,10.57
2023-02-11T03:03:13.588Z,9.80
2023-02-11T03:05:51.434Z,11.27
2023-02-11T03:08:26.879Z,10.57
2023-02-11T03:10:56.648Z,10.73
2023-02-11T03:13:29.475Z,10.85
2023-02-11T03:15:59.898Z,11.20
2023-02-11T03:18:30.627Z,10.20
2023-02-11T03:21:01.832Z,10.43
2023-02-11T03:23:31.959Z,10.68
2023-02-11T03:26:06.561Z,11.20
2023-02-11T03:28:40.769Z,11.52
2023-02-11T03:31:15.889Z,11.68
2023-02-11T03:33:54.565Z,11.53
2023-02-11T03:36:27.724Z,12.32
2023-02-11T03:38:58.926Z,11.73
2023-02-11T03:41:27.399Z,11.45
2023-02-11T03:43:58.146Z,11.45
2023-02-11T03:46:31.139Z,12.20
2023-02-11T03:49:04.083Z,11.60
2023-02-11T03:51:34.801Z,11.60
2023-02-11T03:54:06.860Z,12.25
2023-02-11T03:56:42.332Z,11.57
2023-02-11T03:59:10.267Z,12.00
2023-02-11T04:01:38.200Z,12.05
2023-02-11T04:04:06.693Z,11.45
2023-02-11T04:06:35.829Z,12.95
2023-02-11T04:09:03.713Z,12.25
2023-02-11T04:11:31.505Z,12.20
2023-02-11T04:13:59.240Z,12.75
2023-02-11T04:16:28.067Z,12.20
2023-02-11T04:18:56.006Z,13.32
2023-02-11T04:21:23.802Z,13.10
2023-02-11T04:23:53.034Z,12.33
2023-02-11T04:26:20.800Z,12.45
2023-02-11T04:28:48.591Z,13.48
2023-02-11T04:31:16.460Z,14.20
2023-02-11T04:33:44.413Z,12.68
2023-02-11T04:36:12.205Z,13.20
2023-02-11T04:38:40.131Z,12.95
2023-02-11T04:41:09.360Z,12.10
2023-02-11T04:43:37.093Z,12.65
2023-02-11T04:46:05.040Z,12.65
2023-02-11T04:48:32.940Z,13.33
2023-02-11T04:51:00.695Z,11.68
2023-02-11T04:53:28.455Z,11.70
2023-02-11T04:55:56.237Z,13.57
2023-02-11T04:58:25.435Z,12.10
2023-02-11T05:00:53.392Z,12.27
2023-02-11T05:03:21.168Z,12.20
2023-02-11T05:05:49.308Z,12.77
2023-02-11T05:08:17.350Z,11.60
2023-02-11T05:10:47.667Z,11.48
2023-02-11T05:13:15.848Z,11.87
2023-02-11T05:15:45.067Z,12.90
2023-02-11T05:18:14.857Z,12.10
2023-02-11T05:20:42.929Z,12.75
2023-02-11T05:23:10.813Z,12.40
2023-02-11T05:25:39.135Z,12.50
2023-02-11T05:28:07.475Z,13.32
2023-02-11T05:30:35.368Z,12.23
2023-02-11T05:33:04.614Z,13.48
2023-02-11T05:35:32.406Z,13.70
2023-02-11T05:38:00.177Z,12.97
2023-02-11T05:40:27.997Z,13.10
2023-02-11T05:42:55.795Z,13.07
2023-02-11T05:45:23.619Z,13.65
2023-02-11T05:47:51.470Z,12.85
2023-02-11T05:50:21.364Z,13.63
2023-02-11T05:52:53.298Z,13.00
2023-02-11T05:55:21.107Z,13.63
2023-02-11T05:57:48.801Z,13.45
2023-02-11T06:00:17.562Z,13.73
2023-02-11T06:02:45.485Z,12.93
2023-02-11T06:05:13.356Z,12.52
2023-02-11T06:07:42.526Z,13.35
2023-02-11T06:10:11.042Z,13.18
2023-02-11T06:12:39.053Z,13.38
2023-02-11T06:15:07.934Z,13.40
2023-02-11T06:17:36.580Z,13.40
2023-02-11T06:20:06.351Z,13.85
2023-02-11T06:22:35.075Z,12.30
2023-02-11T06:25:04.817Z,13.93
2023-02-11T06:27:32.723Z,12.17
2023-02-11T06:30:00.592Z,12.82
2023-02-11T06:32:43.450Z,14.25
2023-02-11T06:35:12.901Z,12.88
2023-02-11T06:37:40.777Z,12.05
2023-02-11T06:40:11.172Z,14.50
2023-02-11T06:42:39.614Z,12.77
2023-02-11T06:45:09.521Z,12.25
2023-02-11T06:47:37.641Z,11.63
2023-02-11T06:50:07.590Z,12.88
2023-02-11T06:52:35.772Z,13.10
2023-02-11T06:55:03.583Z,12.18
2023-02-11T06:57:33.581Z,12.55
2023-02-11T07:00:01.430Z,12.45
2023-02-11T07:02:29.325Z,12.18
2023-02-11T07:04:57.116Z,12.40
2023-02-11T07:07:24.988Z,12.40
2023-02-11T07:09:52.859Z,12.40
2023-02-11T07:12:20.648Z,13.50
2023-02-11T07:14:49.921Z,12.00
2023-02-11T07:17:17.720Z,10.83
2023-02-11T07:19:45.423Z,13.20
2023-02-11T07:22:13.250Z,13.30
2023-02-11T07:24:41.170Z,11.10
2023-02-11T07:27:09.000Z,11.15
2023-02-11T07:29:36.795Z,11.40
2023-02-11T07:32:06.909Z,11.68
2023-02-11T07:34:34.884Z,11.07
2023-02-11T07:37:02.828Z,11.13
2023-02-11T07:39:30.674Z,10.93
2023-02-11T07:41:58.422Z,11.20
2023-02-11T07:44:26.874Z,10.68
2023-02-11T07:46:54.771Z,10.55
2023-02-11T07:49:23.965Z,10.25
2023-02-11T07:51:52.035Z,9.90
2023-02-11T07:54:20.087Z,10.07
2023-02-11T07:56:48.002Z,9.77
2023-02-11T07:59:15.807Z,10.07
2023-02-11T08:01:43.864Z,9.85
2023-02-11T08:04:16.806Z,9.15
2023-02-11T08:06:46.072Z,8.63
2023-02-11T08:09:16.602Z,9.50
2023-02-11T08:11:45.319Z,8.82
2023-02-11T08:14:13.494Z,9.00
2023-02-11T08:16:42.221Z,9.45
2023-02-11T08:19:13.907Z,9.10
2023-02-11T08:21:42.522Z,8.95
2023-02-11T08:24:12.658Z,8.82
2023-02-11T08:26:41.015Z,8.80
2023-02-11T08:29:11.897Z,8.77
2023-02-11T08:31:42.179Z,8.43
2023-02-11T08:34:11.557Z,8.18
2023-02-11T08:36:40.682Z,8.02
2023-02-11T08:39:19.936Z,8.40
2023-02-11T08:41:49.678Z,8.50
2023-02-11T08:44:17.824Z,7.87
2023-02-11T08:46:45.775Z,8.27
2023-02-11T08:49:13.568Z,8.15
2023-02-11T08:51:41.544Z,7.97
2023-02-11T08:54:10.991Z,7.68
2023-02-11T08:56:39.621Z,6.90
2023-02-11T08:59:07.734Z,7.63
2023-02-11T09:01:36.177Z,7.60
2023-02-11T09:04:04.073Z,7.30
2023-02-11T09:06:32.027Z,7.53
2023-02-11T09:08:59.934Z,7.07
2023-02-11T09:11:31.673Z,6.95
2023-02-11T09:13:59.763Z,7.18
2023-02-11T09:16:29.883Z,7.35
2023-02-11T09:19:00.926Z,7.38
2023-02-11T09:21:29.501Z,7.30
2023-02-11T09:23:57.548Z,6.78
2023-02-11T09:26:28.975Z,7.20
2023-02-11T09:28:58.684Z,6.35
2023-02-11T09:31:29.213Z,6.68
2023-02-11T09:33:59.824Z,7.13
2023-02-11T09:36:31.077Z,6.22
2023-02-11T09:39:00.334Z,6.82
2023-02-11T09:42:09.690Z,6.32
2023-02-11T09:44:40.180Z,6.70
2023-02-11T09:47:24.999Z,6.43
2023-02-11T09:49:58.338Z,6.80
2023-02-11T09:52:33.513Z,6.43
2023-02-11T09:55:03.147Z,6.93
2023-02-11T09:57:34.449Z,6.68
2023-02-11T10:00:25.062Z,6.40
2023-02-11T10:03:12.912Z,6.90
2023-02-11T10:05:51.636Z,6.55
2023-02-11T10:08:25.388Z,5.35
2023-02-11T10:10:55.083Z,5.68
2023-02-11T10:13:48.870Z,6.33
2023-02-11T10:16:33.769Z,5.68
2023-02-11T10:19:20.446Z,5.60
2023-02-11T10:21:56.652Z,5.40
2023-02-11T10:24:24.702Z,5.40
2023-02-11T10:26:53.206Z,6.00
2023-02-11T10:29:36.450Z,4.97
2023-02-11T10:32:14.150Z,5.28
2023-02-11T10:34:42.883Z,4.80
2023-02-11T10:37:14.077Z,5.00
2023-02-11T10:39:42.533Z,4.80
2023-02-11T10:42:13.665Z,3.95
2023-02-11T10:44:47.100Z,5.00
2023-02-11T10:47:20.010Z,4.30
2023-02-11T10:49:49.344Z,4.03
2023-02-11T10:52:21.750Z,4.07
2023-02-11T10:55:15.613Z,4.47
2023-02-11T10:57:50.619Z,3.72
2023-02-11T11:00:27.957Z,4.78
2023-02-11T11:02:59.485Z,4.32
2023-02-11T11:05:32.352Z,3.93
2023-02-11T11:08:03.064Z,3.83
2023-02-11T11:10:37.197Z,3.88
2023-02-11T11:13:05.063Z,3.88
2023-02-11T11:15:33.239Z,3.92
2023-02-11T11:18:21.853Z,4.20
2023-02-11T11:20:59.249Z,3.35
2023-02-11T11:23:28.477Z,3.83
2023-02-11T11:26:03.602Z,3.97
2023-02-11T11:28:36.732Z,4.10
2023-02-11T11:31:05.122Z,4.40
2023-02-11T11:33:36.483Z,3.80
2023-02-11T11:36:08.864Z,3.90
2023-02-11T11:38:43.654Z,3.78
2023-02-11T11:41:20.314Z,4.10
2023-02-11T11:44:00.277Z,4.80
2023-02-11T11:46:32.534Z,3.80
2023-02-11T11:49:11.108Z,3.58
2023-02-11T11:51:42.159Z,4.10
2023-02-11T11:54:14.472Z,4.35
2023-02-11T11:56:52.051Z,4.27
2023-02-11T11:59:20.404Z,3.90
2023-02-11T12:02:00.623Z,3.85
2023-02-11T12:04:48.733Z,3.60
2023-02-11T12:07:27.827Z,3.90
2023-02-11T12:10:18.901Z,3.70
2023-02-11T12:12:56.716Z,3.90
2023-02-11T12:15:33.879Z,3.78
2023-02-11T12:18:17.581Z,4.30
2023-02-11T12:21:05.297Z,4.47
2023-02-11T12:23:49.540Z,3.50
2023-02-11T12:26:20.563Z,3.90
2023-02-11T12:29:04.513Z,3.90
2023-02-11T12:31:46.963Z,3.90
2023-02-11T12:34:43.066Z,3.55
2023-02-11T12:37:25.538Z,3.43
2023-02-11T12:39:59.839Z,3.47
2023-02-11T12:43:10.430Z,3.40
2023-02-11T12:45:48.614Z,3.38
2023-02-11T12:48:29.288Z,3.22
2023-02-11T12:51:02.655Z,3.20
2023-02-11T12:53:47.073Z,4.82
2023-02-11T12:56:21.694Z,3.30
2023-02-11T12:58:53.630Z,3.17
2023-02-11T13:01:27.778Z,3.15
2023-02-11T13:03:58.645Z,2.77
2023-02-11T13:06:35.077Z,3.03
2023-02-11T13:09:06.995Z,2.78
2023-02-11T13:11:40.793Z,3.10
2023-02-11T13:14:15.124Z,2.65
2023-02-11T13:16:45.828Z,3.30
2023-02-11T13:19:22.671Z,2.92
2023-02-11T13:22:01.797Z,3.47
2023-02-11T13:24:40.616Z,3.35
2023-02-11T13:27:16.257Z,2.95
2023-02-11T13:30:11.198Z,3.20
2023-02-11T13:33:17.386Z,3.13
2023-02-11T13:35:49.533Z,3.03
2023-02-11T13:38:23.088Z,2.78
2023-02-11T13:41:04.963Z,3.17
2023-02-11T13:43:35.247Z,2.70
2023-02-11T13:46:04.759Z,2.67
2023-02-11T13:48:34.740Z,2.78
2023-02-11T13:51:05.955Z,3.03
2023-02-11T13:53:46.373Z,2.78
2023-02-11T13:56:29.716Z,3.17
2023-02-11T13:59:01.491Z,2.65
2023-02-11T14:02:20.225Z,3.15
2023-02-11T14:05:40.687Z,2.80
2023-02-11T14:08:38.863Z,2.58
2023-02-11T14:11:12.204Z,2.07
2023-02-11T14:14:17.159Z,2.42
2023-02-11T14:17:24.955Z,2.30
2023-02-11T14:19:53.049Z,2.45
2023-02-11T14:22:25.898Z,2.47
2023-02-11T14:24:57.099Z,2.63
2023-02-11T14:27:36.042Z,2.22
2023-02-11T14:30:29.692Z,2.38
2023-02-11T14:33:19.596Z,2.00
2023-02-11T14:36:01.819Z,2.42
2023-02-11T14:38:41.840Z,1.70
2023-02-11T14:41:14.906Z,2.25
2023-02-11T14:43:47.384Z,2.75
2023-02-11T14:46:18.636Z,2.22
2023-02-11T14:48:48.235Z,2.05
2023-02-11T14:51:20.072Z,1.80
2023-02-11T14:53:51.241Z,1.88
2023-02-11T14:56:22.506Z,2.42
2023-02-11T14:58:51.772Z,2.20
2023-02-11T15:01:41.926Z,2.15
2023-02-11T15:04:24.935Z,2.30
2023-02-11T15:06:53.091Z,1.80
2023-02-11T15:09:26.909Z,2.22
2023-02-11T15:11:56.322Z,2.22
2023-02-11T15:14:26.842Z,2.35
2023-02-11T15:16:59.212Z,2.00
2023-02-11T15:19:34.260Z,1.73
2023-02-11T15:22:03.370Z,1.80
2023-02-11T15:24:32.951Z,1.80
2023-02-11T15:27:02.597Z,1.83
2023-02-11T15:29:37.666Z,1.73
2023-02-11T15:32:13.332Z,2.03
2023-02-11T15:34:41.835Z,1.88
2023-02-11T15:37:15.017Z,2.20
2023-02-11T15:39:43.489Z,2.15
2023-02-11T15:42:22.621Z,2.10
2023-02-11T15:44:56.577Z,1.70
2023-02-11T15:47:30.613Z,1.75
2023-02-11T15:49:59.138Z,1.80
2023-02-11T15:52:28.921Z,1.92
2023-02-11T15:55:01.594Z,1.83
2023-02-11T15:57:29.810Z,2.05
2023-02-11T15:59:58.647Z,2.40
2023-02-11T16:02:32.381Z,1.67
2023-02-11T16:05:02.493Z,1.73
2023-02-11T16:07:41.795Z,1.70
2023-02-11T16:10:25.374Z,1.60
2023-02-11T16:12:55.274Z,1.92
2023-02-11T16:15:46.228Z,1.65
2023-02-11T16:18:36.836Z,1.90
2023-02-11T16:21:07.494Z,1.80
2023-02-11T16:23:38.524Z,2.08
2023-02-11T16:26:09.446Z,2.00
2023-02-11T16:28:38.026Z,1.80
2023-02-11T16:31:06.741Z,2.20
2023-02-11T16:33:36.024Z,1.70
2023-02-11T16:36:11.396Z,2.03
2023-02-11T16:38:42.193Z,2.00
2023-02-11T16:41:11.855Z,2.30
2023-02-11T16:43:40.163Z,1.88
2023-02-11T16:46:09.223Z,1.90
2023-02-11T16:48:38.927Z,1.85
2023-02-11T16:51:09.170Z,2.33
2023-02-11T16:53:36.997Z,1.75
2023-02-11T16:56:05.295Z,2.35
2023-02-11T16:58:33.675Z,1.87
2023-02-11T17:01:01.897Z,1.92
2023-02-11T17:03:30.309Z,2.05
2023-02-11T17:06:02.886Z,1.83
2023-02-11T17:08:30.798Z,2.08
2023-02-11T17:10:58.540Z,1.83
2023-02-11T17:13:26.787Z,2.10
2023-02-11T17:15:54.870Z,2.38
2023-02-11T17:18:22.990Z,2.65
2023-02-11T17:20:50.740Z,2.55
2023-02-11T17:23:19.866Z,2.17
2023-02-11T17:25:47.585Z,2.30
2023-02-11T17:28:15.524Z,2.15
2023-02-11T17:30:44.223Z,2.60
2023-02-11T17:33:12.078Z,2.30
2023-02-11T17:35:42.930Z,2.30
2023-02-11T17:38:10.768Z,2.33
2023-02-11T17:40:39.930Z,2.17
2023-02-11T17:43:07.784Z,2.97
2023-02-11T17:45:35.988Z,2.10
2023-02-11T17:48:03.981Z,2.50
2023-02-11T17:50:31.777Z,2.75
2023-02-11T17:53:00.730Z,2.72
2023-02-11T17:55:28.555Z,2.60
2023-02-11T17:57:57.755Z,2.20
2023-02-11T18:00:25.548Z,2.43
2023-02-11T18:02:55.339Z,2.80
2023-02-11T18:05:26.597Z,3.05
2023-02-11T18:07:55.783Z,3.38
2023-02-11T18:10:23.593Z,3.22
2023-02-11T18:12:51.641Z,4.00
2023-02-11T18:15:20.846Z,3.70
2023-02-11T18:17:48.650Z,4.45
2023-02-11T18:20:16.548Z,3.70
2023-02-11T18:22:44.694Z,3.90
2023-02-11T18:25:15.522Z,3.70
2023-02-11T18:27:43.393Z,3.85
2023-02-11T18:30:16.581Z,3.70
2023-02-11T18:32:46.616Z,4.18
2023-02-11T18:35:15.842Z,3.38
2023-02-11T18:37:44.008Z,3.60
2023-02-11T18:40:13.154Z,3.85
2023-02-11T18:42:41.145Z,3.65
2023-02-11T18:45:10.962Z,3.88
2023-02-11T18:47:39.473Z,3.72
2023-02-11T18:50:10.306Z,3.27
2023-02-11T18:52:38.466Z,4.10
2023-02-11T18:55:07.525Z,4.03
2023-02-11T18:57:35.674Z,3.40
2023-02-11T19:00:03.690Z,4.32
2023-02-11T19:02:31.596Z,4.27
2023-02-11T19:04:59.364Z,3.70
2023-02-11T19:07:28.598Z,4.57
2023-02-11T19:09:56.568Z,5.18
2023-02-11T19:12:24.484Z,4.40
2023-02-11T19:14:52.536Z,4.00
2023-02-11T19:17:20.362Z,4.50
2023-02-11T19:19:48.438Z,4.53
2023-02-11T19:22:17.021Z,4.43
2023-02-11T19:24:46.710Z,4.25
2023-02-11T19:27:14.560Z,4.17
2023-02-11T19:29:42.714Z,3.80
2023-02-11T19:32:11.689Z,4.60
2023-02-11T19:34:41.501Z,4.60
2023-02-11T19:37:10.769Z,4.28
2023-02-11T19:39:38.533Z,4.40
2023-02-11T19:42:07.852Z,4.30
2023-02-11T19:44:35.647Z,4.50
2023-02-11T19:47:03.500Z,4.38
2023-02-11T19:49:31.316Z,5.00
2023-02-11T19:51:59.202Z,5.60
2023-02-11T19:54:29.037Z,4.82
2023-02-11T19:56:57.521Z,5.15
2023-02-11T19:59:26.661Z,4.97
2023-02-11T20:01:54.616Z,6.20
2023-02-11T20:04:24.662Z,5.30
2023-02-11T20:06:52.526Z,5.22
2023-02-11T20:09:21.374Z,5.35
2023-02-11T20:11:49.497Z,5.15
2023-02-11T20:14:17.477Z,4.93
2023-02-11T20:16:49.523Z,4.57
2023-02-11T20:19:20.005Z,4.95
2023-02-11T20:21:49.826Z,5.65
2023-02-11T20:24:19.380Z,4.30
2023-02-11T20:26:48.521Z,4.88
2023-02-11T20:29:17.470Z,4.83
2023-02-11T20:31:46.874Z,4.82
2023-02-11T20:34:17.442Z,4.70
2023-02-11T20:36:51.375Z,5.22
2023-02-11T20:39:21.697Z,4.65
2023-02-11T20:41:50.409Z,4.40
2023-02-11T20:44:18.792Z,4.90
2023-02-11T20:46:48.245Z,4.90
2023-02-11T20:49:18.852Z,4.80
2023-02-11T20:51:47.364Z,5.20
2023-02-11T20:54:17.685Z,5.00
2023-02-11T20:56:48.083Z,5.45
2023-02-11T20:59:16.663Z,4.80
2023-02-11T21:01:47.929Z,4.40
2023-02-11T21:04:19.088Z,5.03
2023-02-11T21:06:48.820Z,5.77
2023-02-11T21:09:19.630Z,5.72
2023-02-11T21:11:48.115Z,4.85
2023-02-11T21:14:15.957Z,4.85
2023-02-11T21:16:43.889Z,5.00
2023-02-11T21:19:13.188Z,5.60
2023-02-11T21:21:41.412Z,4.95
2023-02-11T21:24:10.469Z,5.10
2023-02-11T21:26:39.068Z,4.97
2023-02-11T21:29:08.775Z,4.72
2023-02-11T21:31:37.951Z,4.90
2023-02-11T21:34:06.764Z,4.78
2023-02-11T21:36:36.188Z,5.10
2023-02-11T21:39:06.480Z,4.75
2023-02-11T21:41:34.822Z,5.07
2023-02-11T21:44:02.857Z,5.10
2023-02-11T21:46:30.958Z,5.38
2023-02-11T21:49:00.386Z,5.55
2023-02-11T21:51:28.340Z,5.28
2023-02-11T21:53:59.582Z,6.25
2023-02-11T21:56:28.198Z,6.17
2023-02-11T21:58:57.629Z,5.90
2023-02-11T22:01:28.391Z,6.40
2023-02-11T22:03:56.404Z,5.63
2023-02-11T22:06:26.266Z,5.85
2023-02-11T22:08:55.646Z,6.60
2023-02-11T22:11:25.008Z,5.72
2023-02-11T22:13:54.870Z,6.07
2023-02-11T22:16:22.826Z,5.72
2023-02-11T22:18:51.499Z,6.25
2023-02-11T22:21:21.577Z,7.10
2023-02-11T22:23:49.431Z,6.63
2023-02-11T22:26:20.501Z,6.78
2023-02-11T22:28:50.641Z,6.53
2023-02-11T22:31:20.833Z,6.82
2023-02-11T22:33:49.118Z,7.13
2023-02-11T22:36:18.676Z,6.28
2023-02-11T22:38:47.042Z,6.70
2023-02-11T22:41:14.957Z,6.05
2023-02-11T22:43:44.104Z,6.25
2023-02-11T22:46:18.576Z,5.83
2023-02-11T22:48:47.054Z,5.72
2023-02-11T22:51:17.556Z,5.95
2023-02-11T22:53:45.406Z,6.78
2023-02-11T22:56:15.747Z,7.45
2023-02-11T22:58:44.147Z,7.33
2023-02-11T23:01:13.639Z,7.57
2023-02-11T23:03:42.040Z,7.55
2023-02-11T23:06:11.219Z,7.40
2023-02-11T23:08:40.120Z,8.15
2023-02-11T23:11:10.333Z,8.03
2023-02-11T23:13:40.425Z,7.95
2023-02-11T23:16:10.789Z,7.15
2023-02-11T23:18:41.908Z,7.43
2023-02-11T23:21:12.882Z,6.88
2023-02-11T23:23:41.143Z,7.70
2023-02-11T23:26:10.615Z,7.20
2023-02-11T23:28:38.635Z,7.18
2023-02-11T23:31:15.034Z,7.78
2023-02-11T23:33:44.647Z,7.50
2023-02-11T23:36:13.043Z,7.53
2023-02-11T23:38:40.937Z,7.65
2023-02-11T23:41:08.922Z,7.18
2023-02-11T23:43:36.900Z,7.95
2023-02-11T23:46:05.758Z,7.07
2023-02-11T23:48:35.870Z,7.20
2023-02-11T23:51:05.580Z,6.95
2023-02-11T23:53:33.409Z,6.82
2023-02-11T23:56:01.195Z,6.75
2023-02-11T23:58:29.104Z,7.53
